Time;durP1;ratioP1;P1;durP2;ratioP2;P2;SDS_P1;SDS_P2;PMS_P1;PMS_P2;Temp;Humidity;BMP_temperature;BMP_pressure;BME280_temperature;BME280_humidity;BME280_pressure;Samples;Min_cycle;Max_cycle;Signal;HPM_P1;HPM_P2
2023/07/07 00:01:04;;;;;;;4.10;3.70;;;14.40;99.90;;;;;;5061403;28;20425;-57
2023/07/07 00:03:30;;;;;;;6.47;3.88;;;14.40;99.90;;;;;;5073804;28;20041;-57
2023/07/07 00:05:56;;;;;;;4.38;3.65;;;14.40;99.90;;;;;;5074312;28;20119;-56
2023/07/07 00:08:22;;;;;;;6.70;3.72;;;14.40;99.90;;;;;;5074082;28;20035;-56
2023/07/07 00:10:48;;;;;;;5.63;3.85;;;14.30;99.90;;;;;;5074227;28;20032;-56
2023/07/07 00:13:15;;;;;;;5.72;3.22;;;14.40;99.90;;;;;;5086993;28;20040;-56
2023/07/07 00:15:47;;;;;;;4.35;3.13;;;14.30;99.90;;;;;;5074844;28;20051;-57
2023/07/07 00:18:15;;;;;;;4.38;3.45;;;14.20;99.90;;;;;;5074001;28;20040;-56
2023/07/07 00:20:41;;;;;;;6.30;4.03;;;14.30;99.90;;;;;;5073881;28;20376;-57
2023/07/07 00:23:07;;;;;;;5.88;3.92;;;14.10;99.90;;;;;;5074039;28;20044;-56
2023/07/07 00:25:33;;;;;;;5.97;3.90;;;14.20;99.90;;;;;;5074236;28;20041;-56
2023/07/07 00:27:59;;;;;;;6.85;3.60;;;14.20;99.90;;;;;;5073264;28;20043;-57
2023/07/07 00:30:24;;;;;;;6.03;4.40;;;14.10;99.90;;;;;;5074091;28;20115;-56
2023/07/07 00:32:50;;;;;;;7.90;3.95;;;14.10;99.90;;;;;;5073836;28;20463;-56
2023/07/07 00:35:16;;;;;;;5.38;3.95;;;13.90;99.90;;;;;;5074001;28;20455;-56
2023/07/07 00:37:43;;;;;;;7.25;3.97;;;14.10;99.90;;;;;;5073762;28;20043;-57
2023/07/07 00:40:10;;;;;;;5.18;4.07;;;14.10;99.90;;;;;;5073461;28;20045;-57
2023/07/07 00:42:35;;;;;;;6.38;3.75;;;14.00;99.90;;;;;;5073478;28;20068;-57
2023/07/07 00:45:21;;;;;;;5.00;3.90;;;14.00;99.90;;;;;;5073611;28;20079;-57
2023/07/07 00:47:58;;;;;;;5.30;3.60;;;14.00;99.90;;;;;;5061346;28;20122;-56
2023/07/07 00:50:27;;;;;;;6.57;3.97;;;13.90;99.90;;;;;;5073668;28;20051;-57
2023/07/07 00:52:53;;;;;;;7.63;3.80;;;13.90;99.90;;;;;;5073323;28;20103;-56
2023/07/07 00:55:32;;;;;;;7.78;4.18;;;13.90;99.90;;;;;;5073605;28;20494;-56
2023/07/07 00:58:06;;;;;;;5.60;3.75;;;13.90;99.90;;;;;;5073306;28;20143;-56
2023/07/07 01:00:34;;;;;;;8.98;3.60;;;13.80;99.90;;;;;;5064392;28;20112;-57
2023/07/07 01:03:03;;;;;;;7.88;2.92;;;13.70;99.90;;;;;;5068147;28;20103;-56
2023/07/07 01:05:31;;;;;;;5.90;3.70;;;13.70;99.90;;;;;;5073408;28;20044;-56
2023/07/07 01:08:00;;;;;;;3.75;3.03;;;13.80;99.90;;;;;;5073109;28;20115;-56
2023/07/07 01:10:26;;;;;;;5.30;3.35;;;13.90;99.90;;;;;;5073218;28;20033;-56
2023/07/07 01:12:52;;;;;;;6.03;3.58;;;13.90;99.90;;;;;;5073033;28;20443;-56
2023/07/07 01:15:20;;;;;;;4.05;3.20;;;13.80;99.90;;;;;;5073049;28;20375;-56
2023/07/07 01:17:58;;;;;;;6.60;3.88;;;13.80;99.90;;;;;;5072790;28;20040;-56
2023/07/07 01:20:34;;;;;;;3.88;3.42;;;13.70;99.90;;;;;;5072652;28;20513;-57
2023/07/07 01:23:24;;;;;;;5.53;3.90;;;13.70;99.90;;;;;;5073197;28;20070;-56
2023/07/07 01:26:14;;;;;;;5.88;3.45;;;13.60;99.90;;;;;;5067565;28;20427;-56
2023/07/07 01:28:54;;;;;;;6.95;3.88;;;13.60;99.90;;;;;;5073184;28;20102;-56
2023/07/07 01:31:28;;;;;;;6.00;3.28;;;13.50;99.90;;;;;;5072772;28;20037;-56
2023/07/07 01:33:54;;;;;;;7.05;3.50;;;13.50;99.90;;;;;;5073162;28;20033;-57
2023/07/07 01:36:20;;;;;;;7.05;3.22;;;13.50;99.90;;;;;;5072529;28;20126;-56
2023/07/07 01:38:46;;;;;;;6.25;3.78;;;13.50;99.90;;;;;;5071026;28;20548;-57
2023/07/07 01:41:12;;;;;;;4.68;3.47;;;13.40;99.90;;;;;;5072623;28;20056;-56
2023/07/07 01:44:03;;;;;;;4.70;3.47;;;13.30;99.90;;;;;;5072490;28;20111;-56
2023/07/07 01:46:34;;;;;;;3.97;2.90;;;13.30;99.90;;;;;;5072608;28;20036;-56
2023/07/07 01:49:19;;;;;;;4.03;2.30;;;13.30;99.90;;;;;;5072578;28;20044;-57
2023/07/07 01:52:03;;;;;;;7.88;2.88;;;13.20;99.90;;;;;;5072730;28;20083;-56
2023/07/07 01:54:32;;;;;;;4.60;2.90;;;13.20;99.90;;;;;;5071334;28;20090;-56
2023/07/07 01:57:00;;;;;;;6.53;2.88;;;13.20;99.90;;;;;;5072229;28;20055;-56
2023/07/07 01:59:26;;;;;;;3.83;2.95;;;13.20;99.90;;;;;;5072311;28;20045;-56
2023/07/07 02:01:52;;;;;;;8.05;3.15;;;13.10;99.90;;;;;;5058178;28;20474;-57
2023/07/07 02:04:17;;;;;;;5.82;3.03;;;13.10;99.90;;;;;;5072503;28;20036;-56
2023/07/07 02:06:43;;;;;;;5.10;2.83;;;13.10;99.90;;;;;;5072531;28;20108;-56
2023/07/07 02:09:09;;;;;;;6.32;2.90;;;13.00;99.90;;;;;;5072414;28;20081;-56
2023/07/07 02:11:34;;;;;;;6.80;3.30;;;13.00;99.90;;;;;;5072289;28;20412;-56
2023/07/07 02:14:00;;;;;;;6.00;2.88;;;13.10;99.90;;;;;;5072024;28;20580;-55
2023/07/07 02:16:26;;;;;;;4.28;3.15;;;13.00;99.90;;;;;;5072408;28;20051;-57
2023/07/07 02:18:52;;;;;;;6.63;3.30;;;13.10;99.90;;;;;;5071147;28;20032;-56
2023/07/07 02:21:19;;;;;;;3.78;3.05;;;13.10;99.90;;;;;;5072489;28;20032;-56
2023/07/07 02:23:45;;;;;;;5.60;3.10;;;13.10;99.90;;;;;;5072411;28;20040;-56
2023/07/07 02:26:14;;;;;;;6.50;3.40;;;13.00;99.90;;;;;;5064603;28;20494;-56
2023/07/07 02:28:40;;;;;;;;;;;13.00;99.90;;;;;;5059345;28;20047;-56
2023/07/07 02:31:06;;;;;;;4.72;3.05;;;13.00;99.90;;;;;;5059237;28;20007;-56
2023/07/07 02:33:32;;;;;;;7.53;3.78;;;13.10;99.90;;;;;;5056970;28;20037;-56
2023/07/07 02:36:03;;;;;;;7.85;3.58;;;13.10;99.90;;;;;;5071759;28;20540;-56
2023/07/07 02:38:29;;;;;;;3.78;3.33;;;13.10;99.90;;;;;;5058914;28;20529;-56
2023/07/07 02:40:55;;;;;;;4.93;4.05;;;13.10;99.90;;;;;;5072057;28;20053;-56
2023/07/07 02:43:21;;;;;;;7.32;5.35;;;13.20;99.90;;;;;;5072173;28;20081;-56
2023/07/07 02:45:47;;;;;;;10.25;5.93;;;13.10;99.90;;;;;;5061061;28;20037;-56
2023/07/07 02:48:13;;;;;;;8.50;5.25;;;13.20;99.90;;;;;;5068874;28;20036;-56
2023/07/07 02:50:39;;;;;;;7.38;5.55;;;13.20;99.90;;;;;;5073493;28;20037;-56
2023/07/07 02:53:05;;;;;;;8.35;5.30;;;13.20;99.90;;;;;;5075619;28;20112;-57
2023/07/07 02:55:30;;;;;;;9.75;5.65;;;13.30;99.90;;;;;;5075603;28;20056;-57
2023/07/07 02:57:57;;;;;;;8.18;6.40;;;13.30;99.90;;;;;;5075778;28;20530;-56
2023/07/07 03:00:24;;;;;;;10.07;6.80;;;13.30;99.90;;;;;;5074474;28;20077;-57
2023/07/07 03:02:50;;;;;;;9.68;5.88;;;13.30;99.90;;;;;;5064780;28;20045;-56
2023/07/07 03:05:15;;;;;;;10.55;6.82;;;13.30;99.90;;;;;;5071853;28;20094;-57
2023/07/07 03:07:41;;;;;;;11.18;6.78;;;13.30;99.90;;;;;;5075652;28;20037;-57
2023/07/07 03:10:08;;;;;;;10.55;7.40;;;13.40;99.90;;;;;;5075562;28;20475;-57
2023/07/07 03:12:34;;;;;;;10.40;7.22;;;13.30;99.90;;;;;;5074226;28;20033;-57
2023/07/07 03:15:00;;;;;;;12.82;7.25;;;13.30;99.90;;;;;;5075584;28;20040;-56
2023/07/07 03:17:26;;;;;;;13.15;7.13;;;13.30;99.90;;;;;;5075306;28;20036;-56
2023/07/07 03:19:52;;;;;;;14.40;7.93;;;13.20;99.90;;;;;;5075328;28;20032;-56
2023/07/07 03:22:17;;;;;;;10.35;7.60;;;13.30;99.90;;;;;;5075042;28;20052;-57
2023/07/07 03:24:43;;;;;;;10.95;7.32;;;13.30;99.90;;;;;;5075066;28;20043;-57
2023/07/07 03:27:08;;;;;;;11.95;7.85;;;13.20;99.90;;;;;;5074740;28;20083;-57
2023/07/07 03:29:35;;;;;;;8.10;7.30;;;13.20;99.90;;;;;;5075313;28;20433;-56
2023/07/07 03:32:00;;;;;;;12.30;7.68;;;13.20;99.90;;;;;;5074994;28;20047;-56
2023/07/07 03:34:26;;;;;;;11.82;8.18;;;13.10;99.90;;;;;;5075165;28;20040;-56
2023/07/07 03:36:51;;;;;;;10.40;8.60;;;13.10;99.90;;;;;;5063489;28;20094;-56
2023/07/07 03:39:17;;;;;;;9.90;8.23;;;13.10;99.90;;;;;;5070612;28;20430;-56
2023/07/07 03:41:43;;;;;;;12.95;8.27;;;13.10;99.90;;;;;;5074439;28;20109;-56
2023/07/07 03:44:08;;;;;;;11.95;8.50;;;13.00;99.90;;;;;;5074691;28;20191;-56
2023/07/07 03:46:34;;;;;;;11.27;8.35;;;13.10;99.90;;;;;;5074906;28;20497;-56
2023/07/07 03:49:00;;;;;;;11.70;8.60;;;13.10;99.90;;;;;;5074760;28;20131;-56
2023/07/07 03:51:28;;;;;;;10.02;8.30;;;13.10;99.90;;;;;;5074444;28;20066;-56
2023/07/07 03:53:54;;;;;;;16.42;9.35;;;13.10;99.90;;;;;;5074574;28;20033;-57
2023/07/07 03:56:20;;;;;;;11.98;9.30;;;13.00;99.90;;;;;;5074424;28;20051;-57
2023/07/07 03:58:46;;;;;;;11.27;8.52;;;13.10;99.90;;;;;;5074587;28;20111;-57
2023/07/07 04:01:13;;;;;;;12.10;9.63;;;13.10;99.90;;;;;;5072371;28;20051;-56
2023/07/07 04:03:40;;;;;;;12.07;9.15;;;13.10;99.90;;;;;;5073679;28;20047;-56
2023/07/07 04:06:06;;;;;;;15.77;9.57;;;13.20;99.90;;;;;;5074160;28;20483;-56
2023/07/07 04:08:33;;;;;;;16.02;10.63;;;13.10;99.90;;;;;;5074397;28;20044;-56
2023/07/07 04:11:26;;;;;;;13.00;9.43;;;13.20;99.90;;;;;;5073866;28;20631;-56
2023/07/07 04:13:52;;;;;;;12.27;9.35;;;13.20;99.90;;;;;;5071747;28;20044;-56
2023/07/07 04:16:26;;;;;;;13.00;10.98;;;13.10;99.90;;;;;;5073950;28;20041;-56
2023/07/07 04:18:54;;;;;;;14.25;10.73;;;13.20;99.90;;;;;;5073966;28;20040;-56
2023/07/07 04:21:23;;;;;;;15.98;11.82;;;13.20;99.90;;;;;;5073751;28;20041;-57
2023/07/07 04:23:51;;;;;;;17.73;10.43;;;13.20;99.90;;;;;;5073960;28;20040;-56
2023/07/07 04:26:18;;;;;;;14.10;10.07;;;13.30;99.90;;;;;;5074414;28;20074;-56
2023/07/07 04:28:44;;;;;;;15.25;10.85;;;13.40;99.90;;;;;;5073777;28;20093;-57
2023/07/07 04:31:11;;;;;;;13.18;10.38;;;13.40;99.90;;;;;;5074092;28;20502;-56
2023/07/07 04:33:38;;;;;;;19.90;11.43;;;13.50;99.90;;;;;;5074079;28;20430;-56
2023/07/07 04:36:06;;;;;;;14.15;11.85;;;13.50;99.90;;;;;;5070376;28;20064;-56
2023/07/07 04:38:32;;;;;;;15.18;11.30;;;13.60;99.90;;;;;;5063379;28;20146;-56
2023/07/07 04:41:22;;;;;;;13.85;10.35;;;13.60;99.90;;;;;;5073335;28;20068;-57
2023/07/07 04:43:56;;;;;;;14.75;10.65;;;13.70;99.90;;;;;;5073852;28;20107;-57
2023/07/07 04:46:26;;;;;;;18.15;12.38;;;13.80;99.90;;;;;;5073248;28;20437;-58
2023/07/07 04:48:52;;;;;;;17.00;13.45;;;13.90;99.90;;;;;;5073661;28;20134;-58
2023/07/07 04:51:18;;;;;;;16.45;12.50;;;13.90;99.90;;;;;;5073243;28;20533;-58
2023/07/07 04:53:43;;;;;;;15.95;12.05;;;14.00;99.90;;;;;;5073337;28;20067;-59
2023/07/07 04:56:11;;;;;;;19.40;12.40;;;14.20;99.90;;;;;;5073082;28;20080;-59
2023/07/07 04:58:39;;;;;;;17.40;13.10;;;14.20;99.90;;;;;;5073323;28;20047;-59
2023/07/07 05:01:10;;;;;;;15.13;13.00;;;14.30;99.90;;;;;;5073343;28;20479;-58
2023/07/07 05:03:37;;;;;;;18.85;13.05;;;14.30;99.90;;;;;;5073412;28;20028;-59
2023/07/07 05:06:03;;;;;;;14.70;12.15;;;14.40;99.90;;;;;;5073332;28;20033;-59
2023/07/07 05:08:34;;;;;;;17.13;12.40;;;14.50;99.90;;;;;;5073004;28;20032;-57
2023/07/07 05:11:00;;;;;;;17.95;13.98;;;14.70;99.90;;;;;;5072991;28;20090;-57
2023/07/07 05:13:26;;;;;;;19.30;12.73;;;14.70;99.90;;;;;;5072609;28;20036;-60
2023/07/07 05:16:19;;;;;;;18.92;13.48;;;14.80;99.90;;;;;;5073183;28;20500;-57
2023/07/07 05:18:45;;;;;;;20.92;12.95;;;14.90;99.90;;;;;;5070660;28;20089;-57
2023/07/07 05:21:13;;;;;;;18.35;13.70;;;15.00;99.90;;;;;;5073135;28;20487;-59
2023/07/07 05:23:38;;;;;;;19.67;13.57;;;15.00;99.90;;;;;;5072798;28;20072;-59
2023/07/07 05:26:05;;;;;;;20.92;13.75;;;15.20;99.90;;;;;;5072747;28;20072;-59
2023/07/07 05:28:31;;;;;;;20.05;13.77;;;15.30;99.90;;;;;;5072760;28;20456;-59
2023/07/07 05:30:57;;;;;;;14.63;12.98;;;15.30;99.90;;;;;;5073105;28;20107;-56
2023/07/07 05:33:23;;;;;;;18.00;12.52;;;15.40;99.90;;;;;;5072646;28;20135;-56
2023/07/07 05:35:53;;;;;;;20.05;13.35;;;15.60;99.90;;;;;;5071275;28;20078;-56
2023/07/07 05:38:22;;;;;;;18.77;14.02;;;15.60;99.90;;;;;;5060560;28;20040;-56
2023/07/07 05:40:48;;;;;;;;;;;15.70;99.90;;;;;;5072803;28;20058;-57
2023/07/07 05:43:16;;;;;;;18.50;12.68;;;15.80;99.90;;;;;;5072469;28;20435;-57
2023/07/07 05:45:41;;;;;;;19.35;14.15;;;15.90;99.90;;;;;;5072764;28;20033;-56
2023/07/07 05:48:08;;;;;;;16.20;12.73;;;16.00;99.90;;;;;;5072457;28;20041;-56
2023/07/07 05:50:33;;;;;;;20.63;13.57;;;16.20;99.90;;;;;;5072261;28;20032;-56
2023/07/07 05:53:01;;;;;;;21.95;13.45;;;16.20;99.90;;;;;;5072386;28;20070;-56
2023/07/07 05:55:32;;;;;;;17.33;13.30;;;16.30;99.90;;;;;;5072737;28;20040;-56
2023/07/07 05:57:59;;;;;;;16.50;13.23;;;16.50;99.90;;;;;;5072718;28;20098;-56
2023/07/07 06:00:27;;;;;;;18.08;13.27;;;16.60;99.90;;;;;;5072746;28;20044;-56
2023/07/07 06:02:53;;;;;;;16.25;12.90;;;16.80;99.90;;;;;;5072395;28;20483;-56
2023/07/07 06:05:19;;;;;;;19.17;13.07;;;17.00;99.90;;;;;;5072374;28;20079;-56
2023/07/07 06:07:46;;;;;;;15.60;12.70;;;17.10;99.90;;;;;;5072283;28;20494;-56
2023/07/07 06:10:12;;;;;;;19.15;13.30;;;17.20;99.90;;;;;;5072450;28;20071;-56
2023/07/07 06:12:38;;;;;;;17.77;12.52;;;17.30;99.90;;;;;;5072698;28;20072;-56
2023/07/07 06:15:05;;;;;;;19.65;11.77;;;17.50;99.90;;;;;;5072317;28;20032;-56
2023/07/07 06:17:30;;;;;;;18.50;12.77;;;17.60;99.90;;;;;;5071046;28;20044;-56
2023/07/07 06:19:56;;;;;;;16.50;12.32;;;17.80;99.90;;;;;;5072327;28;20093;-56
2023/07/07 06:22:22;;;;;;;18.75;13.25;;;17.90;99.90;;;;;;5070665;28;20048;-56
2023/07/07 06:24:47;;;;;;;16.42;12.13;;;18.10;99.90;;;;;;5072798;28;20048;-56
2023/07/07 06:27:13;;;;;;;19.02;11.07;;;18.20;99.90;;;;;;5076217;28;20048;-56
2023/07/07 06:29:39;;;;;;;14.25;11.02;;;18.30;99.90;;;;;;5076312;28;20158;-56
2023/07/07 06:32:05;;;;;;;15.07;10.38;;;18.50;99.90;;;;;;5075883;28;20474;-56
2023/07/07 06:34:31;;;;;;;13.00;10.40;;;18.70;99.90;;;;;;5075895;28;20483;-56
2023/07/07 06:36:56;;;;;;;14.23;10.38;;;19.00;99.90;;;;;;5067254;28;20040;-57
2023/07/07 06:39:22;;;;;;;11.07;8.98;;;19.10;99.90;;;;;;5075851;28;20040;-56
2023/07/07 06:41:48;;;;;;;17.10;9.43;;;19.30;99.90;;;;;;5076043;28;20116;-56
2023/07/07 06:44:13;;;;;;;14.95;10.20;;;19.50;99.90;;;;;;5075608;28;20036;-56
2023/07/07 06:46:39;;;;;;;14.98;10.15;;;19.60;99.90;;;;;;5076065;28;20117;-56
2023/07/07 06:49:05;;;;;;;13.88;8.63;;;19.70;99.90;;;;;;5076132;28;20098;-56
2023/07/07 06:51:31;;;;;;;12.50;9.15;;;19.90;99.90;;;;;;5076183;28;20036;-56
2023/07/07 06:53:57;;;;;;;14.18;9.60;;;20.20;99.90;;;;;;5075951;28;20036;-56
2023/07/07 06:56:23;;;;;;;15.43;9.02;;;20.30;99.90;;;;;;5075343;28;20127;-56
2023/07/07 06:58:49;;;;;;;11.30;8.52;;;20.50;99.90;;;;;;5075445;28;20449;-57
2023/07/07 07:01:14;;;;;;;12.95;7.88;;;20.70;99.90;;;;;;5075512;28;20047;-56
2023/07/07 07:03:43;;;;;;;12.00;7.65;;;21.00;99.90;;;;;;5075226;28;20121;-57
2023/07/07 07:06:09;;;;;;;10.70;7.40;;;21.30;99.90;;;;;;5075681;28;20094;-56
2023/07/07 07:08:35;;;;;;;10.77;7.93;;;21.30;99.90;;;;;;5075594;28;20050;-56
2023/07/07 07:11:01;;;;;;;10.50;8.32;;;21.60;99.90;;;;;;5074334;28;20119;-56
2023/07/07 07:13:27;;;;;;;11.23;7.22;;;21.80;99.90;;;;;;5073945;28;20036;-57
2023/07/07 07:15:53;;;;;;;11.38;7.10;;;21.90;99.90;;;;;;5074920;28;20391;-56
2023/07/07 07:18:18;;;;;;;8.60;6.88;;;22.00;99.90;;;;;;5075217;28;20036;-57
2023/07/07 07:20:48;;;;;;;10.35;7.00;;;22.10;99.90;;;;;;5075134;28;20444;-57
2023/07/07 07:23:14;;;;;;;10.75;6.38;;;22.40;99.90;;;;;;5075065;28;20036;-57
2023/07/07 07:25:42;;;;;;;17.23;6.13;;;22.60;99.90;;;;;;5075079;28;20089;-56
2023/07/07 07:28:08;;;;;;;6.53;5.40;;;22.70;99.90;;;;;;5075253;28;20040;-56
2023/07/07 07:30:33;;;;;;;9.35;5.22;;;22.80;99.90;;;;;;5074856;28;20040;-56
2023/07/07 07:33:03;;;;;;;8.65;5.40;;;23.00;99.90;;;;;;5075074;28;20497;-57
2023/07/07 07:35:29;;;;;;;7.63;5.05;;;23.00;99.90;;;;;;5074810;28;20044;-57
2023/07/07 07:37:55;;;;;;;6.07;4.45;;;23.00;99.90;;;;;;5065721;28;20049;-57
2023/07/07 07:40:23;;;;;;;6.40;4.07;;;23.40;99.90;;;;;;5074355;28;20060;-57
2023/07/07 07:42:49;;;;;;;11.52;4.53;;;23.60;99.90;;;;;;5074564;28;20044;-57
2023/07/07 07:45:18;;;;;;;8.18;4.45;;;23.80;99.90;;;;;;5074459;28;20037;-56
2023/07/07 07:47:44;;;;;;;9.10;4.22;;;24.20;99.90;;;;;;5074722;28;20051;-57
2023/07/07 07:50:10;;;;;;;7.38;4.10;;;24.40;99.90;;;;;;5074707;28;20078;-57
2023/07/07 07:52:36;;;;;;;5.40;3.60;;;24.50;99.90;;;;;;5074389;28;20040;-57
2023/07/07 07:55:01;;;;;;;4.95;3.55;;;24.90;99.90;;;;;;5074780;28;20047;-57
2023/07/07 07:57:27;;;;;;;7.80;3.67;;;25.00;99.90;;;;;;5073950;28;20447;-57
2023/07/07 07:59:53;;;;;;;8.40;3.97;;;24.90;99.90;;;;;;5074198;28;20068;-57
2023/07/07 08:02:18;;;;;;;6.95;3.00;;;25.20;99.90;;;;;;5074365;28;20036;-57
2023/07/07 08:04:44;;;;;;;13.43;3.20;;;25.30;99.90;;;;;;5073657;28;20032;-57
2023/07/07 08:07:10;;;;;;;5.40;2.75;;;26.00;99.90;;;;;;5072265;28;20398;-57
2023/07/07 08:09:35;;;;;;;10.80;3.00;;;27.60;99.90;;;;;;5073263;28;20036;-59
2023/07/07 08:12:03;;;;;;;7.38;2.63;;;28.20;99.90;;;;;;5073630;28;20040;-58
2023/07/07 08:14:30;;;;;;;4.63;2.55;;;28.40;99.90;;;;;;5073108;28;20076;-57
2023/07/07 08:16:58;;;;;;;9.80;2.70;;;28.40;99.90;;;;;;5073430;28;20506;-58
2023/07/07 08:19:24;;;;;;;;;;;28.60;99.90;;;;;;5073566;28;20055;-58
2023/07/07 08:21:50;;;;;;;5.47;2.70;;;28.50;99.90;;;;;;5071364;28;19920;-57
2023/07/07 08:24:16;;;;;;;6.55;2.58;;;28.80;99.90;;;;;;5073046;28;20040;-58
2023/07/07 08:26:42;;;;;;;6.88;2.42;;;28.70;99.90;;;;;;5072985;28;20471;-58
2023/07/07 08:29:09;;;;;;;8.98;2.92;;;28.50;99.90;;;;;;5072660;28;20091;-57
2023/07/07 08:31:35;;;;;;;4.70;2.78;;;28.60;99.80;;;;;;5073071;28;20040;-57
2023/07/07 08:34:02;;;;;;;6.53;2.70;;;28.70;98.20;;;;;;5072909;28;20448;-57
2023/07/07 08:36:29;;;;;;;5.35;2.58;;;29.00;99.50;;;;;;5064826;28;20498;-58
2023/07/07 08:38:59;;;;;;;4.60;2.38;;;29.00;99.50;;;;;;5065316;28;20036;-58
2023/07/07 08:41:25;;;;;;;3.53;2.10;;;29.20;99.90;;;;;;5072566;28;20057;-58
2023/07/07 08:43:50;;;;;;;3.33;1.85;;;29.40;99.90;;;;;;5072250;28;20045;-57
2023/07/07 08:46:39;;;;;;;9.88;2.58;;;29.60;99.00;;;;;;5058636;28;20047;-58
2023/07/07 08:49:12;;;;;;;4.20;2.37;;;29.50;99.20;;;;;;5071858;28;20044;-58
2023/07/07 08:51:46;;;;;;;3.78;2.35;;;29.50;98.30;;;;;;5072355;28;20037;-58
2023/07/07 08:54:24;;;;;;;6.68;2.63;;;29.40;96.60;;;;;;5072142;28;20043;-58
2023/07/07 08:57:06;;;;;;;6.03;2.37;;;29.60;98.20;;;;;;5072310;28;20036;-58
2023/07/07 08:59:56;;;;;;;4.15;2.10;;;29.90;97.50;;;;;;5072427;28;20052;-58
2023/07/07 09:02:56;;;;;;;4.43;2.00;;;29.70;97.10;;;;;;5072104;28;20105;-58
2023/07/07 09:05:22;;;;;;;8.50;1.92;;;29.70;95.70;;;;;;5072265;28;20033;-58
2023/07/07 09:08:15;;;;;;;3.50;1.80;;;29.70;96.70;;;;;;5072058;28;20055;-58
2023/07/07 09:10:52;;;;;;;3.22;1.88;;;29.60;96.40;;;;;;5072078;28;20040;-59
2023/07/07 09:13:27;;;;;;;6.25;2.30;;;29.70;95.70;;;;;;5071989;28;20386;-58
2023/07/07 09:16:17;;;;;;;5.43;2.08;;;29.70;95.20;;;;;;5072204;28;20115;-58
2023/07/07 09:18:51;;;;;;;4.95;1.92;;;30.00;95.10;;;;;;5071793;28;20037;-58
2023/07/07 09:21:36;;;;;;;3.90;2.13;;;29.70;94.40;;;;;;5071820;28;20045;-58
2023/07/07 09:24:23;;;;;;;3.05;2.10;;;29.70;95.50;;;;;;5071768;28;20036;-59
2023/07/07 09:26:52;;;;;;;3.65;1.92;;;29.80;95.30;;;;;;5071921;28;20565;-59
2023/07/07 09:29:25;;;;;;;4.13;2.28;;;29.80;94.70;;;;;;5071753;28;20047;-58
2023/07/07 09:31:51;;;;;;;3.28;1.98;;;30.20;94.40;;;;;;5071771;28;20043;-58
2023/07/07 09:34:17;;;;;;;4.35;1.83;;;30.40;94.90;;;;;;5072278;28;20036;-58
2023/07/07 09:36:54;;;;;;;4.07;2.13;;;30.60;95.50;;;;;;5063310;28;20566;-58
2023/07/07 09:39:42;;;;;;;5.55;2.13;;;30.50;94.50;;;;;;5067966;28;20099;-58
2023/07/07 09:42:39;;;;;;;3.92;2.08;;;30.40;93.70;;;;;;5071479;28;20383;-58
2023/07/07 09:45:16;;;;;;;5.95;2.17;;;30.50;93.60;;;;;;5071463;28;20040;-59
2023/07/07 09:48:03;;;;;;;4.07;1.98;;;30.50;94.00;;;;;;5071579;28;20506;-58
2023/07/07 09:50:36;;;;;;;5.55;2.20;;;30.50;93.20;;;;;;5061455;28;20048;-58
2023/07/07 09:53:18;;;;;;;5.53;1.92;;;30.80;94.40;;;;;;5071700;28;20376;-58
2023/07/07 09:55:44;;;;;;;4.28;2.05;;;31.00;94.80;;;;;;5071643;28;20036;-59
2023/07/07 09:58:28;;;;;;;31.75;4.10;;;31.10;94.90;;;;;;5071623;28;20079;-57
2023/07/07 10:00:58;;;;;;;84.70;7.25;;;31.30;94.10;;;;;;5062247;28;20090;-58
2023/07/07 10:03:44;;;;;;;9.55;2.58;;;30.70;93.40;;;;;;5075782;28;20045;-58
2023/07/07 10:06:31;;;;;;;2.55;1.80;;;30.80;93.20;;;;;;5076062;28;20090;-58
2023/07/07 10:08:58;;;;;;;6.38;2.40;;;31.10;93.40;;;;;;5075428;28;20044;-58
2023/07/07 10:11:28;;;;;;;3.70;2.00;;;31.30;94.80;;;;;;5075667;28;20036;-58
2023/07/07 10:13:55;;;;;;;4.22;2.10;;;31.40;93.60;;;;;;5075708;28;20032;-57
2023/07/07 10:16:32;;;;;;;2.97;1.88;;;31.30;93.00;;;;;;5075485;28;20090;-58
2023/07/07 10:19:09;;;;;;;3.78;2.05;;;31.60;92.40;;;;;;5075099;28;20497;-58
2023/07/07 10:21:36;;;;;;;3.83;1.90;;;31.90;93.30;;;;;;5075278;28;20503;-58
2023/07/07 10:24:02;;;;;;;5.75;2.15;;;31.80;92.90;;;;;;5075183;28;20090;-58
2023/07/07 10:26:28;;;;;;;4.40;2.15;;;32.00;92.90;;;;;;5075609;28;20052;-58
2023/07/07 10:29:00;;;;;;;5.45;2.17;;;31.90;91.60;;;;;;5075320;28;20048;-58
2023/07/07 10:31:27;;;;;;;6.38;1.90;;;32.10;91.40;;;;;;5075158;28;20044;-58
2023/07/07 10:34:00;;;;;;;3.28;1.83;;;32.40;91.10;;;;;;5075153;28;20038;-58
2023/07/07 10:36:33;;;;;;;3.30;2.03;;;32.70;91.80;;;;;;5055804;28;20361;-58
2023/07/07 10:38:59;;;;;;;2.97;2.00;;;32.40;92.20;;;;;;5068378;28;20040;-58
2023/07/07 10:41:26;;;;;;;3.42;1.80;;;32.80;92.20;;;;;;5074790;28;20058;-59
2023/07/07 10:43:53;;;;;;;3.63;2.10;;;32.70;92.20;;;;;;5074873;28;20050;-58
2023/07/07 10:46:19;;;;;;;4.03;2.00;;;32.70;91.60;;;;;;5074500;28;20032;-59
2023/07/07 10:48:46;;;;;;;5.47;1.98;;;33.10;91.70;;;;;;5074749;28;20102;-58
2023/07/07 10:51:26;;;;;;;4.45;2.28;;;33.50;91.20;;;;;;5074477;28;20040;-59
2023/07/07 10:54:06;;;;;;;7.00;2.42;;;33.70;90.50;;;;;;5074717;28;20098;-58
2023/07/07 10:56:42;;;;;;;4.07;1.70;;;34.00;91.30;;;;;;5074788;28;20052;-58
2023/07/07 10:59:19;;;;;;;6.20;2.00;;;33.90;90.60;;;;;;5074474;28;20029;-58
2023/07/07 11:02:22;;;;;;;3.08;1.95;;;34.30;90.60;;;;;;5074765;28;20145;-59
2023/07/07 11:05:00;;;;;;;3.00;1.83;;;34.60;90.00;;;;;;5064349;28;20037;-57
2023/07/07 11:07:47;;;;;;;5.40;4.35;;;34.70;90.40;;;;;;5060723;28;20497;-58
2023/07/07 11:10:43;;;;;;;8.25;2.13;;;35.00;90.30;;;;;;5054712;28;20045;-57
2023/07/07 11:13:23;;;;;;;3.28;1.80;;;35.10;87.50;;;;;;5056688;28;20033;-58
2023/07/07 11:16:26;;;;;;;3.47;1.90;;;35.30;89.00;;;;;;5056456;28;20040;-58
2023/07/07 11:19:13;;;;;;;3.97;2.30;;;35.70;90.30;;;;;;5054333;28;20037;-58
2023/07/07 11:21:56;;;;;;;2.92;2.08;;;35.90;86.90;;;;;;5066732;28;20036;-59
2023/07/07 11:24:44;;;;;;;3.88;2.10;;;36.00;89.60;;;;;;5066284;28;20048;-59
2023/07/07 11:27:46;;;;;;;3.13;1.75;;;36.00;85.90;;;;;;5072891;28;20044;-58
2023/07/07 11:30:24;;;;;;;5.10;2.35;;;36.30;86.20;;;;;;5061525;28;20123;-58
2023/07/07 11:33:22;;;;;;;2.50;1.77;;;36.50;85.20;;;;;;5074134;28;20040;-58
2023/07/07 11:36:15;;;;;;;3.30;1.75;;;36.60;88.90;;;;;;5031991;28;20045;-58
2023/07/07 11:39:28;;;;;;;3.63;1.83;;;36.60;83.50;;;;;;5032072;28;20048;-59
2023/07/07 11:42:00;;;;;;;3.05;2.10;;;36.60;85.60;;;;;;4953740;29;20409;-58
2023/07/07 11:44:36;;;;;;;4.70;2.42;;;36.10;85.10;;;;;;4940555;29;20119;-58
2023/07/07 11:47:23;;;;;;;6.38;2.30;;;35.20;86.70;;;;;;4953874;29;20055;-58
2023/07/07 11:50:03;;;;;;;5.60;2.17;;;34.60;87.40;;;;;;4944782;29;20054;-58
2023/07/07 11:52:35;;;;;;;2.67;1.80;;;35.10;86.10;;;;;;4953749;29;20101;-58
2023/07/07 11:55:13;;;;;;;8.68;3.47;;;35.10;87.20;;;;;;4953482;29;20046;-58
2023/07/07 11:57:48;;;;;;;;;;;34.70;87.90;;;;;;4954087;29;20490;-59
2023/07/07 12:00:26;;;;;;;4.88;2.05;;;35.10;86.90;;;;;;4953640;29;19922;-58
2023/07/07 12:02:58;;;;;;;3.80;1.92;;;34.70;87.10;;;;;;4953651;29;20082;-58
2023/07/07 12:05:35;;;;;;;5.57;1.90;;;35.10;87.80;;;;;;4953483;29;20079;-59
2023/07/07 12:08:35;;;;;;;2.72;2.10;;;35.10;85.00;;;;;;4953367;29;20051;-59
2023/07/07 12:11:03;;;;;;;;;;;34.70;85.30;;;;;;4953557;28;20061;-58
2023/07/07 12:14:02;;;;;;;3.95;2.00;;;34.40;86.40;;;;;;5045788;28;19916;-58
2023/07/07 12:16:29;;;;;;;;;;;34.50;86.20;;;;;;4984631;28;20046;-58
2023/07/07 12:19:10;;;;;;;2.20;1.70;;;34.60;87.30;;;;;;4989563;28;19925;-59
2023/07/07 12:21:38;;;;;;;3.38;2.17;;;33.60;85.50;;;;;;4991774;28;20050;-58
2023/07/07 12:24:41;;;;;;;7.07;2.22;;;32.50;85.30;;;;;;4974680;28;20077;-58
2023/07/07 12:27:20;;;;;;;3.55;2.00;;;32.80;88.40;;;;;;4956291;28;20046;-58
2023/07/07 12:29:48;;;;;;;12.85;2.40;;;33.10;88.90;;;;;;4959649;28;20538;-58
2023/07/07 12:32:14;;;;;;;5.38;1.92;;;33.40;88.20;;;;;;4952835;28;20102;-58
2023/07/07 12:34:45;;;;;;;3.10;2.08;;;33.10;86.40;;;;;;4952959;28;20047;-58
2023/07/07 12:37:16;;;;;;;4.13;2.20;;;33.40;87.70;;;;;;4952326;28;20095;-58
2023/07/07 12:39:54;;;;;;;5.95;2.50;;;33.50;86.80;;;;;;4952655;28;20046;-58
2023/07/07 12:42:22;;;;;;;3.92;2.08;;;33.30;86.50;;;;;;4952701;28;20063;-59
2023/07/07 12:44:48;;;;;;;4.55;2.17;;;33.40;87.00;;;;;;4952553;28;20505;-57
2023/07/07 12:47:32;;;;;;;3.53;2.15;;;33.20;86.30;;;;;;4952567;28;20063;-58
2023/07/07 12:50:02;;;;;;;4.15;1.83;;;33.10;85.50;;;;;;4934538;29;20046;-59
2023/07/07 12:52:40;;;;;;;3.72;2.30;;;33.00;85.30;;;;;;4958048;28;20126;-60
2023/07/07 12:55:25;;;;;;;5.22;2.38;;;32.70;84.80;;;;;;5010035;28;20050;-59
2023/07/07 12:58:05;;;;;;;4.10;2.13;;;32.50;83.90;;;;;;4994345;28;20588;-60
2023/07/07 13:00:41;;;;;;;2.63;1.88;;;32.70;88.50;;;;;;5010990;28;20492;-59
2023/07/07 13:03:10;;;;;;;6.43;1.98;;;32.70;86.90;;;;;;5042310;28;20049;-60